createdAt,value
2023-05-21T00:03:03.415Z,99817.17
2023-05-21T00:13:29.078Z,99820.01
2023-05-21T00:23:57.727Z,99815.23
2023-05-21T00:34:22.969Z,99814.21
2023-05-21T00:44:50.525Z,99808.70
2023-05-21T00:55:16.643Z,99794.01
2023-05-21T01:05:45.484Z,99797.21
2023-05-21T01:16:14.440Z,99800.57
2023-05-21T01:26:43.042Z,99800.44
2023-05-21T01:37:38.225Z,99793.45
2023-05-21T01:48:07.225Z,99788.16
2023-05-21T01:58:34.853Z,99788.27
2023-05-21T02:09:00.401Z,99781.67
2023-05-21T02:19:25.617Z,99773.73
2023-05-21T02:29:50.427Z,99774.88
2023-05-21T02:40:16.154Z,99768.96
2023-05-21T02:50:54.382Z,99768.97
2023-05-21T03:02:19.811Z,99765.09
2023-05-21T03:13:09.829Z,99760.36
2023-05-21T03:23:37.486Z,99764.13
2023-05-21T03:34:05.301Z,99757.61
2023-05-21T03:44:32.945Z,99754.23
2023-05-21T03:55:08.992Z,99752.11
2023-05-21T04:05:34.596Z,99749.90
2023-05-21T04:16:03.607Z,99753.02
2023-05-21T04:26:35.904Z,99752.52
2023-05-21T04:37:04.536Z,99748.94
2023-05-21T04:47:30.776Z,99750.05
2023-05-21T04:57:56.553Z,99747.55
2023-05-21T05:08:24.704Z,99743.23
2023-05-21T05:18:55.257Z,99739.60
2023-05-21T05:30:03.298Z,99729.98
2023-05-21T05:40:45.899Z,99724.14
2023-05-21T05:51:10.361Z,99726.38
2023-05-21T06:01:35.234Z,99722.48
2023-05-21T06:11:59.514Z,99722.35
2023-05-21T06:22:25.470Z,99716.56
2023-05-21T06:32:51.154Z,99711.85
2023-05-21T06:43:16.028Z,99715.66
2023-05-21T06:54:13.254Z,99713.98
2023-05-21T07:04:38.377Z,99703.42
2023-05-21T07:15:03.098Z,99701.91
2023-05-21T07:25:28.264Z,99701.02
2023-05-21T07:35:52.777Z,99698.27
2023-05-21T07:46:17.091Z,99695.28
2023-05-21T07:56:42.207Z,99697.23
2023-05-21T08:07:11.203Z,99688.31
2023-05-21T08:17:35.572Z,99688.59
2023-05-21T08:28:00.809Z,99693.38
2023-05-21T08:38:26.639Z,99698.73
2023-05-21T08:49:14.447Z,99695.86
2023-05-21T08:59:43.569Z,99691.20
2023-05-21T09:10:18.384Z,99686.84
2023-05-21T09:20:44.382Z,99697.20
2023-05-21T09:31:09.446Z,99700.75
2023-05-21T09:41:36.373Z,99699.48
2023-05-21T09:52:01.466Z,99702.41
2023-05-21T10:03:13.866Z,99691.02
2023-05-21T10:13:45.416Z,99685.31
2023-05-21T10:24:10.264Z,99679.60
2023-05-21T10:34:37.119Z,99667.29
2023-05-21T10:45:16.504Z,99672.38
2023-05-21T10:56:07.782Z,99660.02
2023-05-21T11:06:32.733Z,99655.67
2023-05-21T11:16:57.490Z,99657.02
2023-05-21T11:27:32.358Z,99646.86
2023-05-21T11:37:56.834Z,99632.82
2023-05-21T11:48:28.970Z,99632.33
2023-05-21T11:58:57.143Z,99632.43
2023-05-21T12:09:22.835Z,99634.84
2023-05-21T12:19:48.550Z,99637.25
2023-05-21T12:30:13.231Z,99631.86
2023-05-21T12:40:39.575Z,99632.48
2023-05-21T12:51:04.352Z,99633.36
2023-05-21T13:01:28.820Z,99635.96
2023-05-21T13:11:53.421Z,99632.20
2023-05-21T13:22:18.594Z,99645.32
2023-05-21T13:32:43.819Z,99649.28
2023-05-21T13:43:09.491Z,99641.79
2023-05-21T13:53:33.902Z,99637.23
2023-05-21T14:03:58.082Z,99633.78
2023-05-21T14:14:23.081Z,99632.56
2023-05-21T14:24:47.730Z,99627.57
2023-05-21T14:35:11.932Z,99623.20
2023-05-21T14:45:36.843Z,99627.27
2023-05-21T14:56:02.310Z,99628.58
2023-05-21T15:06:28.195Z,99625.48
2023-05-21T15:16:53.630Z,99616.46
2023-05-21T15:27:18.005Z,99607.08
2023-05-21T15:37:43.913Z,99596.45
2023-05-21T15:48:08.298Z,99593.80
2023-05-21T15:58:33.442Z,99592.33
2023-05-21T16:08:57.807Z,99586.34
2023-05-21T16:19:22.497Z,99579.48
2023-05-21T16:29:47.470Z,99572.37
2023-05-21T16:40:14.235Z,99561.05
2023-05-21T16:50:40.382Z,99560.80
2023-05-21T17:01:05.797Z,99557.88
2023-05-21T17:11:30.914Z,99565.98
2023-05-21T17:21:56.516Z,99572.12
2023-05-21T17:32:21.889Z,99574.65
2023-05-21T17:42:46.036Z,99584.21
2023-05-21T17:53:10.785Z,99582.73
2023-05-21T18:03:36.170Z,99585.05
2023-05-21T18:14:00.651Z,99586.69
2023-05-21T18:24:25.295Z,99593.34
2023-05-21T18:34:50.267Z,99599.33
2023-05-21T18:45:15.158Z,99589.54
2023-05-21T18:55:39.916Z,99593.95
2023-05-21T19:06:04.723Z,99599.79
2023-05-21T19:16:29.165Z,99602.75
2023-05-21T19:26:54.757Z,99602.45
2023-05-21T19:37:19.995Z,99609.91
2023-05-21T19:47:44.515Z,99605.19
2023-05-21T19:58:11.111Z,99611.64
2023-05-21T20:08:36.432Z,99606.41
2023-05-21T20:19:02.210Z,99603.69
2023-05-21T20:29:29.124Z,99600.58
2023-05-21T20:39:58.766Z,99602.77
2023-05-21T20:50:26.302Z,99612.94
2023-05-21T21:00:50.898Z,99617.79
2023-05-21T21:11:15.527Z,99610.89
2023-05-21T21:21:39.598Z,99611.12
2023-05-21T21:32:03.755Z,99610.38
2023-05-21T21:42:28.455Z,99614.55
2023-05-21T21:52:56.197Z,99612.75
2023-05-21T22:03:20.241Z,99616.59
2023-05-21T22:13:46.026Z,99611.17
2023-05-21T22:24:15.122Z,99604.66
2023-05-21T22:34:49.418Z,99602.58
2023-05-21T22:45:14.344Z,99608.29
2023-05-21T22:55:38.420Z,99600.00
2023-05-21T23:06:02.793Z,99594.55
2023-05-21T23:16:27.875Z,99589.74
2023-05-21T23:26:52.703Z,99584.35
2023-05-21T23:37:17.218Z,99581.36
2023-05-21T23:47:41.768Z,99576.63
2023-05-21T23:58:05.727Z,99568.04
